KCDS/CDS METAR and TAF weather

Enter ICAO airport designator
Station Type Date Time Source
KCDS METAR 2019/12/11 16:53 UTC NOAA

KCDS 111653Z AUTO 19010KT 10SM CLR 07/00 A3042 RMK AO2 SLP308 T00720000


Station Type Date Time Source
KCDS Decoded METAR 2019/12/11 16:53 UTC NOAA

CHILDRESS MUNICIPAL AIRPORT, TX, United States (KCDS) 34-26N 100-17W 594M
Dec 11, 2019 - 11:53 AM EST / 2019.12.11 1653 UTC
Wind: from the S (190 degrees) at 12 MPH (10 KT):0
Visibility: 10 mile(s):0
Sky conditions: clear
Temperature: 45.0 F (7.2 C)
Dew Point: 32.0 F (0.0 C)
Relative Humidity: 60%
Pressure (altimeter): 30.42 in. Hg (1030 hPa)
ob: KCDS 111653Z AUTO 19010KT 10SM CLR 07/00 A3042 RMK AO2 SLP308 T00720000
cycle: 17

Station Type Date Time Source
KCDS TAF 2019/12/11 18:24 UTC NOAA

TAF KCDS 111722Z 1118/1218 18010KT P6SM SCT250

Example: see airport list